Avondale Estates, GA (30002)

4:20 AM EST on December 21, 2014 (GMT -0500)
City of Avondale Estates | Change Station
CLOSE
Current Station
Personal Weather Station
Location: Avondale Estates, GA
Elevation: 1079 ft
Nearby Weather Stations

Elev 1079 ft 33.78 °N, 84.27 °W | Updated 7 minutes ago

Overcast
Overcast
45.3 °F
Feels Like 45 °F
N
0.0
Wind Variable Wind from WNW

Today
High -- | Low -- °F
--% Chance of Precip.
Yesterday
High -- | Low -- °F
Precip. -- in
7:37 AM 5:32 PM
Waning Crescent, 1% visible
Pressure 30.22 in
Visibility 4.0 miles
Clouds Overcast 600 ft
Windchill 45 °F
Dew Point 43 °F
Humidity 92%
Rainfall 0.00 in
Snow Depth Not available.
UV 0 out of 12
Pollen .30 out of 12
Air Quality Not available.
Flu Activity Not available.
METAR KPDK 210853Z AUTO 00000KT 4SM BR OVC006 07/06 A3020 RMK AO2 SLP231 T00720061 53001 $

More Conditions Fewer Conditions

Pressure 30.22 in
Visibility 4.0 miles
Clouds Overcast 600 ft
Windchill 45 °F
Dew Point 43 °F
Humidity 92%
Rainfall 0.00 in
Snow Depth Not available.
UV 0 out of 12
Pollen .30 out of 12
Air Quality Not available.
Flu Activity Not available.
METAR KPDK 210853Z AUTO 00000KT 4SM BR OVC006 07/06 A3020 RMK AO2 SLP231 T00720061 53001 $

More Conditions Fewer Conditions

10-Day Weather Forecast

Almanac

Astronomy

Dec. 21, 2014 Rise Set
Actual Time
Civil Twilight
Nautical Twilight
Astronomical Twilight
Moon
Length of Visible Light
Length of Day
Tomorrow will be .
, % of the Moon is Illuminated

Today's Extremes

State Highs State Lows

Community

WunderPhotos

Upload Photos

1,779,364 photos uploaded!

WunderBlogs® & News

Nearby

Air Quality

  Air Quality AQ Index Pollutant
Not available.

Snow Depth

Station Depth Elevation

Earthquake Activity

City Distance Mag. Time & Date
Minimum magnitude displayed is 2.5.

Coastal Water Temperatures

Place Temperature

Nearby Weather Stations